createdAt,value
2023-03-22T00:00:17.353Z,31.30
2023-03-22T00:02:45.954Z,28.50
2023-03-22T00:05:14.281Z,27.50
2023-03-22T00:08:00.727Z,31.60
2023-03-22T00:10:31.126Z,26.90
2023-03-22T00:12:59.545Z,26.50
2023-03-22T00:15:29.652Z,28.80
2023-03-22T00:18:05.820Z,28.10
2023-03-22T00:20:38.547Z,26.40
2023-03-22T00:23:09.173Z,30.50
2023-03-22T00:25:38.054Z,29.00
2023-03-22T00:28:06.167Z,26.90
2023-03-22T00:30:34.160Z,27.50
2023-03-22T00:33:02.601Z,28.30
2023-03-22T00:35:30.910Z,27.20
2023-03-22T00:38:06.246Z,29.40
2023-03-22T00:40:35.435Z,31.30
2023-03-22T00:43:03.455Z,30.20
2023-03-22T00:45:32.302Z,33.70
2023-03-22T00:48:00.938Z,27.70
2023-03-22T00:50:30.334Z,26.70
2023-03-22T00:52:58.654Z,29.20
2023-03-22T00:55:28.255Z,30.20
2023-03-22T00:57:56.551Z,28.90
2023-03-22T01:00:24.896Z,26.40
2023-03-22T01:02:53.860Z,29.70
2023-03-22T01:05:22.237Z,31.30
2023-03-22T01:07:55.068Z,28.60
2023-03-22T01:10:23.067Z,31.60
2023-03-22T01:12:51.738Z,27.40
2023-03-22T01:15:19.827Z,29.70
2023-03-22T01:17:47.924Z,29.30
2023-03-22T01:20:16.143Z,27.10
2023-03-22T01:22:44.101Z,27.30
2023-03-22T01:25:12.491Z,27.20
2023-03-22T01:27:40.929Z,31.80
2023-03-22T01:30:09.619Z,28.60
2023-03-22T01:32:37.803Z,28.90
2023-03-22T01:35:06.571Z,28.70
2023-03-22T01:37:35.284Z,28.60
2023-03-22T01:40:04.669Z,26.30
2023-03-22T01:42:34.562Z,25.80
2023-03-22T01:45:15.399Z,27.40
2023-03-22T01:47:55.925Z,27.60
2023-03-22T01:50:24.307Z,30.80
2023-03-22T01:52:52.455Z,27.80
2023-03-22T01:55:28.041Z,27.30
2023-03-22T01:58:09.170Z,34.90
2023-03-22T02:00:45.830Z,30.60
2023-03-22T02:03:57.003Z,32.40
2023-03-22T02:06:25.991Z,32.90
2023-03-22T02:08:59.144Z,32.10
2023-03-22T02:11:32.418Z,30.00
2023-03-22T02:14:27.383Z,30.30
2023-03-22T02:17:20.286Z,31.10
2023-03-22T02:20:33.279Z,30.00
2023-03-22T02:23:47.668Z,30.90
2023-03-22T02:26:19.306Z,30.70
2023-03-22T02:29:03.220Z,31.20
2023-03-22T02:31:49.500Z,30.90
2023-03-22T02:34:44.976Z,30.10
2023-03-22T02:37:28.639Z,28.30
2023-03-22T02:40:15.042Z,28.90
2023-03-22T02:42:58.028Z,25.40
2023-03-22T02:45:29.295Z,23.70
2023-03-22T02:48:13.221Z,26.40
2023-03-22T02:51:00.457Z,27.50
2023-03-22T02:53:56.544Z,26.40
2023-03-22T02:56:26.502Z,21.60
2023-03-22T02:58:56.609Z,24.70
2023-03-22T03:01:29.445Z,23.20
2023-03-22T03:04:01.094Z,24.10
2023-03-22T03:06:31.148Z,22.70
2023-03-22T03:09:02.723Z,22.20
2023-03-22T03:11:32.354Z,23.10
2023-03-22T03:14:00.930Z,22.80
2023-03-22T03:16:30.766Z,24.40
2023-03-22T03:19:20.441Z,22.00
2023-03-22T03:21:57.721Z,21.30
2023-03-22T03:24:38.017Z,24.70
2023-03-22T03:27:15.285Z,22.90
2023-03-22T03:30:14.094Z,23.40
2023-03-22T03:32:54.805Z,21.50
2023-03-22T03:35:26.045Z,23.50
2023-03-22T03:37:57.757Z,24.90
2023-03-22T03:40:33.890Z,23.30
2023-03-22T03:43:05.071Z,23.60
2023-03-22T03:45:34.884Z,23.50
2023-03-22T03:48:05.608Z,21.40
2023-03-22T03:50:33.837Z,21.60
2023-03-22T03:53:02.297Z,22.30
2023-03-22T03:55:30.844Z,21.30
2023-03-22T03:57:58.752Z,23.10
2023-03-22T04:00:27.509Z,22.40
2023-03-22T04:03:14.695Z,23.20
2023-03-22T04:06:01.192Z,27.70
2023-03-22T04:08:30.052Z,30.40
2023-03-22T04:11:00.755Z,26.50
2023-03-22T04:13:30.938Z,28.40
2023-03-22T04:16:02.226Z,27.60
2023-03-22T04:18:35.678Z,28.30
2023-03-22T04:21:06.158Z,25.10
2023-03-22T04:23:41.118Z,25.50
2023-03-22T04:26:09.386Z,26.80
2023-03-22T04:28:45.803Z,25.80
2023-03-22T04:31:15.069Z,24.80
2023-03-22T04:33:54.968Z,24.90
2023-03-22T04:36:45.186Z,25.70
2023-03-22T04:39:33.829Z,24.10
2023-03-22T04:42:22.200Z,24.10
2023-03-22T04:44:54.709Z,25.50
2023-03-22T04:47:22.832Z,25.40
2023-03-22T04:49:51.040Z,24.40
2023-03-22T04:52:19.217Z,23.40
2023-03-22T04:54:55.998Z,22.10
2023-03-22T04:57:24.828Z,23.00
2023-03-22T04:59:52.946Z,21.60
2023-03-22T05:02:22.037Z,20.50
2023-03-22T05:04:50.961Z,23.40
2023-03-22T05:07:44.808Z,22.40
2023-03-22T05:10:14.362Z,21.60
2023-03-22T05:12:42.657Z,22.30
2023-03-22T05:15:28.634Z,23.20
2023-03-22T05:17:56.677Z,22.40
2023-03-22T05:20:25.124Z,25.20
2023-03-22T05:23:14.857Z,27.20
2023-03-22T05:25:45.259Z,28.20
2023-03-22T05:28:19.493Z,28.90
2023-03-22T05:30:57.190Z,27.20
2023-03-22T05:33:35.096Z,27.10
2023-03-22T05:36:03.932Z,33.80
2023-03-22T05:38:34.817Z,29.50
2023-03-22T05:41:03.719Z,32.40
2023-03-22T05:43:32.895Z,29.60
2023-03-22T05:46:06.939Z,30.40
2023-03-22T05:48:41.485Z,30.20
2023-03-22T05:51:13.418Z,31.50
2023-03-22T05:53:46.505Z,31.80
2023-03-22T05:56:21.961Z,32.40
2023-03-22T05:58:51.749Z,29.80
2023-03-22T06:01:21.609Z,34.40
2023-03-22T06:03:50.368Z,34.40
2023-03-22T06:06:31.025Z,35.20
2023-03-22T06:09:19.877Z,31.60
2023-03-22T06:11:51.341Z,32.90
2023-03-22T06:14:19.373Z,30.00
2023-03-22T06:17:05.925Z,28.20
2023-03-22T06:19:34.394Z,33.00
2023-03-22T06:22:04.648Z,29.50
2023-03-22T06:24:34.161Z,25.40
2023-03-22T06:27:07.155Z,29.20
2023-03-22T06:29:36.488Z,25.70
2023-03-22T06:32:06.575Z,28.60
2023-03-22T06:34:34.764Z,25.10
2023-03-22T06:37:03.058Z,26.40
2023-03-22T06:39:40.436Z,29.10
2023-03-22T06:42:10.914Z,24.20
2023-03-22T06:44:42.292Z,23.40
2023-03-22T06:47:15.977Z,22.90
2023-03-22T06:49:58.742Z,25.30
2023-03-22T06:52:29.985Z,24.70
2023-03-22T06:54:58.607Z,21.80
2023-03-22T06:57:32.614Z,20.60
2023-03-22T07:00:00.560Z,22.20
2023-03-22T07:02:28.500Z,21.50
2023-03-22T07:05:12.870Z,22.50
2023-03-22T07:07:41.408Z,21.40
2023-03-22T07:10:10.136Z,23.60
2023-03-22T07:12:38.876Z,28.80
2023-03-22T07:15:11.718Z,25.30
2023-03-22T07:17:56.955Z,22.60
2023-03-22T07:20:26.148Z,23.10
2023-03-22T07:22:54.509Z,21.20
2023-03-22T07:25:25.290Z,18.10
2023-03-22T07:28:00.481Z,21.60
2023-03-22T07:30:37.745Z,19.70
2023-03-22T07:33:07.397Z,20.20
2023-03-22T07:35:37.039Z,19.00
2023-03-22T07:38:06.538Z,17.00
2023-03-22T07:40:34.872Z,20.70
2023-03-22T07:43:03.927Z,17.80
2023-03-22T07:45:48.997Z,21.30
2023-03-22T07:48:52.990Z,18.50
2023-03-22T07:51:42.335Z,18.40
2023-03-22T07:54:11.544Z,18.70
2023-03-22T07:56:44.828Z,17.20
2023-03-22T07:59:12.961Z,14.40
2023-03-22T08:01:41.180Z,16.20
2023-03-22T08:04:20.274Z,14.70
2023-03-22T08:06:58.771Z,16.00
2023-03-22T08:09:28.480Z,17.10
2023-03-22T08:11:57.143Z,12.40
2023-03-22T08:14:35.988Z,13.20
2023-03-22T08:17:07.846Z,14.60
2023-03-22T08:19:36.903Z,13.60
2023-03-22T08:22:06.873Z,13.90
2023-03-22T08:25:07.395Z,12.80
2023-03-22T08:27:38.485Z,13.90
2023-03-22T08:30:07.575Z,10.50
2023-03-22T08:32:35.854Z,10.80
2023-03-22T08:35:09.680Z,13.10
2023-03-22T08:37:38.022Z,10.90
2023-03-22T08:40:09.918Z,13.60
2023-03-22T08:42:52.909Z,11.40
2023-03-22T08:45:21.087Z,10.60
2023-03-22T08:47:54.315Z,10.60
2023-03-22T08:50:24.314Z,10.50
2023-03-22T08:53:00.567Z,8.20
2023-03-22T08:55:31.777Z,11.20
2023-03-22T08:58:16.497Z,12.10
2023-03-22T09:00:50.655Z,9.90
2023-03-22T09:03:26.219Z,11.30
2023-03-22T09:05:54.191Z,7.50
2023-03-22T09:08:22.698Z,8.50
2023-03-22T09:10:56.645Z,9.10
2023-03-22T09:13:25.442Z,10.00
2023-03-22T09:16:02.810Z,9.10
2023-03-22T09:18:33.900Z,8.80
2023-03-22T09:21:05.717Z,7.00
2023-03-22T09:23:39.182Z,7.00
2023-03-22T09:26:08.378Z,6.40
2023-03-22T09:28:36.718Z,6.70
2023-03-22T09:31:07.735Z,6.90
2023-03-22T09:33:37.376Z,9.30
2023-03-22T09:36:06.749Z,5.70
2023-03-22T09:38:37.521Z,6.20
2023-03-22T09:41:06.728Z,6.10
2023-03-22T09:43:44.707Z,7.80
2023-03-22T09:46:19.887Z,6.90
2023-03-22T09:48:49.013Z,8.10
2023-03-22T09:51:27.715Z,6.90
2023-03-22T09:53:55.778Z,7.30
2023-03-22T09:56:29.600Z,9.30
2023-03-22T09:59:23.242Z,6.80
2023-03-22T10:01:52.483Z,8.70
2023-03-22T10:04:26.707Z,7.10
2023-03-22T10:07:18.862Z,7.40
2023-03-22T10:09:58.425Z,8.00
2023-03-22T10:15:16.076Z,9.40
2023-03-22T10:17:47.719Z,7.50
2023-03-22T10:20:29.056Z,7.60
2023-03-22T10:22:59.073Z,8.00
2023-03-22T10:25:38.637Z,9.80
2023-03-22T10:28:18.739Z,6.90
2023-03-22T10:30:51.684Z,8.90
2023-03-22T10:33:34.300Z,8.00
2023-03-22T10:36:02.914Z,8.00
2023-03-22T10:38:31.670Z,8.00
2023-03-22T10:41:00.001Z,6.90
2023-03-22T10:43:38.542Z,7.50
2023-03-22T10:46:09.051Z,7.60
2023-03-22T10:48:42.378Z,8.40
2023-03-22T10:51:16.129Z,7.60
2023-03-22T10:53:46.769Z,6.20
2023-03-22T10:56:16.900Z,7.50
2023-03-22T10:58:48.332Z,5.60
2023-03-22T11:01:29.933Z,6.50
2023-03-22T11:04:12.708Z,4.90
2023-03-22T11:06:52.750Z,4.90
2023-03-22T11:09:23.663Z,5.40
2023-03-22T11:11:56.001Z,5.80
2023-03-22T11:14:28.511Z,5.40
2023-03-22T11:16:59.307Z,4.60
2023-03-22T11:19:31.561Z,5.10
2023-03-22T11:22:00.539Z,5.00
2023-03-22T11:24:30.743Z,5.50
2023-03-22T11:27:22.476Z,5.00
2023-03-22T11:29:52.456Z,4.70
2023-03-22T11:32:27.536Z,5.20
2023-03-22T11:35:05.331Z,5.10
2023-03-22T11:37:33.307Z,5.20
2023-03-22T11:40:05.248Z,4.80
2023-03-22T11:42:34.314Z,4.30
2023-03-22T11:45:02.337Z,5.00
2023-03-22T11:47:37.040Z,5.00
2023-03-22T11:50:08.761Z,4.70
2023-03-22T11:52:37.473Z,4.80
2023-03-22T11:55:06.687Z,3.90
2023-03-22T11:57:34.638Z,4.30
2023-03-22T12:00:11.380Z,4.50
2023-03-22T12:02:54.981Z,4.40
2023-03-22T12:05:29.957Z,5.30
2023-03-22T12:08:11.169Z,5.60
2023-03-22T12:10:41.144Z,4.80
2023-03-22T12:13:32.681Z,5.00
2023-03-22T12:16:02.678Z,4.20
2023-03-22T12:18:39.577Z,4.00
2023-03-22T12:21:09.331Z,4.60
2023-03-22T12:23:37.881Z,3.90
2023-03-22T12:26:11.841Z,3.70
2023-03-22T12:28:56.454Z,3.70
2023-03-22T12:31:31.561Z,3.40
2023-03-22T12:34:03.260Z,4.50
2023-03-22T12:36:41.801Z,3.70
2023-03-22T12:39:19.522Z,3.10
2023-03-22T12:41:49.652Z,3.80
2023-03-22T12:44:23.903Z,3.10
2023-03-22T12:47:01.035Z,2.70
2023-03-22T12:49:34.042Z,2.90
2023-03-22T12:52:15.630Z,2.20
2023-03-22T12:54:45.412Z,5.30
2023-03-22T12:57:14.711Z,2.60
2023-03-22T12:59:45.645Z,2.50
2023-03-22T13:02:21.135Z,2.50
2023-03-22T13:04:55.056Z,2.60
2023-03-22T13:07:45.128Z,2.30
2023-03-22T13:10:48.239Z,2.30
2023-03-22T13:13:23.059Z,2.50
2023-03-22T13:16:11.171Z,2.40
2023-03-22T13:18:42.428Z,2.40
2023-03-22T13:21:13.256Z,2.60
2023-03-22T13:24:19.618Z,2.00
2023-03-22T13:26:52.967Z,2.50
2023-03-22T13:29:24.492Z,2.20
2023-03-22T13:32:00.523Z,2.10
2023-03-22T13:34:38.650Z,2.40
2023-03-22T13:37:11.185Z,2.00
2023-03-22T13:39:39.405Z,3.60
2023-03-22T13:42:21.910Z,2.50
2023-03-22T13:45:00.068Z,2.20
2023-03-22T13:47:36.759Z,2.30
2023-03-22T13:50:13.540Z,2.20
2023-03-22T13:52:43.938Z,2.40
2023-03-22T13:55:36.390Z,2.50
2023-03-22T13:58:05.991Z,2.80
2023-03-22T14:00:54.481Z,3.00
2023-03-22T14:03:32.120Z,3.30
2023-03-22T14:06:09.583Z,2.50
2023-03-22T14:08:42.593Z,3.60
2023-03-22T14:11:20.830Z,8.20
2023-03-22T14:16:36.867Z,2.10
2023-03-22T14:19:06.456Z,2.30
2023-03-22T14:21:39.993Z,2.50
